Time;durP1;ratioP1;P1;durP2;ratioP2;P2;SDS_P1;SDS_P2;PMS_P1;PMS_P2;Temp;Humidity;BMP_temperature;BMP_pressure;BME280_temperature;BME280_humidity;BME280_pressure;Samples;Min_cycle;Max_cycle;Signal;HPM_P1;HPM_P2
2021/03/06 00:02:25;;;;;;;3.90;2.70;;;;;;;1.83;100.00;101798.16;5061626;28;20047;-78
2021/03/06 00:05:28;;;;;;;4.22;2.35;;;;;;;1.84;100.00;101794.25;5061180;28;20064;-78
2021/03/06 00:08:32;;;;;;;4.80;2.00;;;;;;;1.80;100.00;101796.16;5073718;28;20048;-78
2021/03/06 00:11:35;;;;;;;6.03;2.50;;;;;;;1.79;100.00;101791.81;5073643;28;20385;-78
2021/03/06 00:14:39;;;;;;;39.92;9.10;;;;;;;1.82;100.00;101796.59;5061183;28;20528;-78
2021/03/06 00:17:42;;;;;;;34.28;8.43;;;;;;;1.86;100.00;101797.44;5073332;28;20102;-78
2021/03/06 00:20:46;;;;;;;29.13;7.10;;;;;;;1.86;100.00;101797.44;5061235;28;20245;-78
2021/03/06 00:23:49;;;;;;;17.77;5.85;;;;;;;1.82;100.00;101793.84;5073532;28;20045;-78
2021/03/06 00:26:53;;;;;;;20.40;6.13;;;;;;;1.81;100.00;101797.75;5061204;28;20047;-78
2021/03/06 00:29:56;;;;;;;20.77;5.03;;;;;;;1.80;100.00;101799.69;5072324;28;20055;-78
2021/03/06 00:33:00;;;;;;;1.30;1.30;;;;;;;1.78;100.00;101795.72;5035268;28;20266;-78
2021/03/06 00:36:05;;;;;;;7.25;3.85;;;;;;;1.79;100.00;101792.63;5022582;28;20266;-78
2021/03/06 00:39:08;;;;;;;4.30;2.67;;;;;;;1.86;100.00;101786.44;5022674;28;20039;-77
2021/03/06 00:42:12;;;;;;;3.95;3.05;;;;;;;2.04;100.00;101792.97;5035131;28;20047;-77
2021/03/06 00:45:16;;;;;;;3.20;2.63;;;;;;;2.07;100.00;101793.06;5022918;28;21067;-77
2021/03/06 00:48:20;;;;;;;2.88;2.45;;;;;;;2.06;100.00;101801.66;5035848;28;20047;-77
2021/03/06 00:51:23;;;;;;;4.93;3.05;;;;;;;2.05;100.00;101791.84;5035746;28;20031;-77
2021/03/06 00:54:27;;;;;;;2.90;2.55;;;;;;;2.01;100.00;101799.25;5024332;28;20567;-77
2021/03/06 00:57:30;;;;;;;6.20;2.17;;;;;;;1.93;100.00;101794.78;5026641;28;20650;-77
2021/03/06 01:00:34;;;;;;;1.60;1.48;;;;;;;1.92;100.00;101793.22;5041589;28;20040;-77
2021/03/06 01:03:38;;;;;;;3.80;2.97;;;;;;;1.91;100.00;101799.84;5025732;28;20067;-77
2021/03/06 01:06:42;;;;;;;5.38;2.35;;;;;;;1.85;100.00;101791.13;5025902;28;20042;-78
2021/03/06 01:09:46;;;;;;;6.75;2.25;;;;;;;1.82;100.00;101799.34;5023388;28;20048;-78
2021/03/06 01:12:49;;;;;;;4.93;3.17;;;;;;;1.80;100.00;101804.41;5022576;28;20039;-77
2021/03/06 01:15:53;;;;;;;7.00;2.67;;;;;;;1.75;100.00;101796.47;5035550;28;20060;-77
2021/03/06 01:18:57;;;;;;;3.13;1.83;;;;;;;1.71;100.00;101796.41;5023821;28;20059;-78
2021/03/06 01:22:01;;;;;;;2.97;1.98;;;;;;;1.70;100.00;101802.28;5034562;28;20127;-77
2021/03/06 01:25:06;;;;;;;3.20;2.25;;;;;;;1.72;100.00;101798.00;5034438;28;20043;-77
2021/03/06 01:28:09;;;;;;;4.43;2.17;;;;;;;1.66;100.00;101790.44;5021167;28;20462;-77
2021/03/06 01:31:13;;;;;;;1.73;1.17;;;;;;;1.58;100.00;101796.97;5022609;28;20346;-77
2021/03/06 01:34:17;;;;;;;2.25;2.25;;;;;;;1.56;100.00;101788.31;5035638;28;20048;-77
2021/03/06 01:37:20;;;;;;;3.80;2.40;;;;;;;1.49;100.00;101792.50;5021397;28;20047;-77
2021/03/06 01:40:28;;;;;;;3.17;2.85;;;;;;;1.40;100.00;101797.47;5023072;28;20044;-77
2021/03/06 01:43:32;;;;;;;4.32;2.97;;;;;;;1.38;100.00;101799.78;5034995;28;20127;-77
2021/03/06 01:46:35;;;;;;;2.20;1.95;;;;;;;1.33;100.00;101791.84;5021337;28;20063;-76
2021/03/06 01:49:39;;;;;;;3.45;3.13;;;;;;;1.36;100.00;101795.81;5033790;28;20515;-77
2021/03/06 01:52:42;;;;;;;3.58;1.83;;;;;;;1.31;100.00;101799.66;5021755;28;20725;-77
2021/03/06 01:55:48;;;;;;;4.18;2.85;;;;;;;1.30;100.00;101798.06;5034749;28;20036;-77
2021/03/06 01:58:51;;;;;;;1.75;1.63;;;;;;;1.32;100.00;101797.72;5021958;28;20043;-77
2021/03/06 02:01:55;;;;;;;6.10;2.42;;;;;;;1.29;100.00;101792.94;5021240;28;20052;-77
2021/03/06 02:04:59;;;;;;;1.65;1.55;;;;;;;1.29;100.00;101792.94;5022224;28;20052;-78
2021/03/06 02:08:03;;;;;;;9.20;4.15;;;;;;;1.27;100.00;101790.59;5035944;28;20072;-77
2021/03/06 02:11:07;;;;;;;1.60;1.50;;;;;;;1.25;100.00;101795.66;5022617;28;20299;-77
2021/03/06 02:14:24;;;;;;;3.53;2.20;;;;;;;1.27;100.00;101793.31;5034036;28;20547;-77
2021/03/06 02:17:55;;;;;;;4.60;1.98;;;;;;;1.27;100.00;101793.31;5015835;28;20064;-77
2021/03/06 02:21:12;;;;;;;2.20;1.65;;;;;;;1.23;100.00;101792.47;5015374;28;20104;-77
2021/03/06 02:24:54;;;;;;;6.85;2.22;;;;;;;1.19;100.00;101775.13;5014498;28;20052;-76
2021/03/06 02:28:12;;;;;;;4.43;1.98;;;;;;;1.17;100.00;101771.97;5014596;28;20444;-77
2021/03/06 02:31:18;;;;;;;2.17;1.98;;;;;;;1.16;100.00;101770.38;5014442;28;20032;-76
2021/03/06 02:34:26;;;;;;;2.55;2.35;;;;;;;1.12;100.00;101777.75;5013634;28;20040;-76
2021/03/06 02:37:32;;;;;;;2.95;2.50;;;;;;;1.04;100.00;101767.03;5014974;28;20563;-76
2021/03/06 02:40:41;;;;;;;4.18;2.13;;;;;;;1.01;100.00;101768.53;5014350;28;20369;-76
2021/03/06 02:43:45;;;;;;;2.08;1.52;;;;;;;0.96;100.00;101755.13;5015959;28;20044;-77
2021/03/06 02:46:49;;;;;;;5.28;2.83;;;;;;;0.92;100.00;101759.75;5014354;28;20036;-77
2021/03/06 02:49:58;;;;;;;2.83;2.50;;;;;;;0.87;100.00;101757.28;5014176;28;20044;-77
2021/03/06 02:53:02;;;;;;;1.77;1.67;;;;;;;0.82;100.00;101754.06;5019055;28;20111;-77
2021/03/06 02:56:06;;;;;;;1.70;1.60;;;;;;;0.81;100.00;101760.69;5018578;28;20417;-76
2021/03/06 02:59:17;;;;;;;1.83;1.60;;;;;;;0.75;100.00;101755.53;5018252;28;20040;-77
2021/03/06 03:02:48;;;;;;;3.53;2.05;;;;;;;0.65;100.00;101749.84;5017087;28;20060;-77
2021/03/06 03:06:07;;;;;;;2.00;1.77;;;;;;;0.60;100.00;101755.59;5019325;28;20351;-76
2021/03/06 03:09:19;;;;;;;9.90;2.85;;;;;;;0.56;100.00;101757.50;5021334;28;20040;-77
2021/03/06 03:12:24;;;;;;;3.67;2.55;;;;;;;0.45;100.00;101746.31;5022430;28;20056;-77
2021/03/06 03:15:35;;;;;;;13.90;4.15;;;;;;;0.44;100.00;101757.63;5017310;28;20044;-77
2021/03/06 03:18:45;;;;;;;2.05;1.95;;;;;;;0.41;100.00;101755.63;5037323;28;20048;-76
2021/03/06 03:21:53;;;;;;;3.60;2.33;;;;;;;0.35;100.00;101757.03;5039367;28;20048;-77
2021/03/06 03:25:00;;;;;;;3.03;2.00;;;;;;;0.29;100.00;101747.50;5028466;28;20040;-76
2021/03/06 03:28:05;;;;;;;7.43;3.33;;;;;;;0.25;100.00;101746.66;5028290;28;20420;-77
2021/03/06 03:31:10;;;;;;;6.72;3.50;;;;;;;0.26;100.00;101753.72;5028995;28;20059;-77
2021/03/06 03:34:17;;;;;;;2.97;2.00;;;;;;;0.19;100.00;101748.09;5037908;28;20052;-76
2021/03/06 03:37:22;;;;;;;2.60;2.03;;;;;;;0.14;100.00;101746.44;5026155;28;20048;-77
2021/03/06 03:40:25;;;;;;;1.45;1.45;;;;;;;0.11;100.00;101751.84;5026436;28;20043;-77
2021/03/06 03:43:30;;;;;;;2.67;1.83;;;;;;;0.05;100.00;101758.72;5039932;28;20092;-76
2021/03/06 03:46:34;;;;;;;3.50;2.80;;;;;;;-0.01;100.00;101745.34;5038844;28;20051;-77
2021/03/06 03:49:38;;;;;;;3.83;2.22;;;;;;;-0.13;100.00;101744.66;5026205;28;20059;-77
2021/03/06 03:52:45;;;;;;;2.90;2.15;;;;;;;-0.29;100.00;101744.69;5061403;28;20037;-77
2021/03/06 03:55:50;;;;;;;3.10;2.83;;;;;;;-0.51;100.00;101742.59;5072693;28;20055;-76
2021/03/06 03:58:53;;;;;;;1.77;1.67;;;;;;;-0.69;100.00;101752.31;5061941;28;20048;-76
2021/03/06 04:01:57;;;;;;;2.88;2.40;;;;;;;-0.82;100.00;101753.53;5072998;28;20543;-77
2021/03/06 04:05:00;;;;;;;2.28;1.95;;;;;;;-0.97;100.00;101746.13;5060847;28;20500;-77
2021/03/06 04:08:05;;;;;;;1.10;1.10;;;;;;;-1.10;100.00;101752.78;5061730;28;20045;-77
2021/03/06 04:11:08;;;;;;;3.25;3.05;;;;;;;-1.19;100.00;101741.25;5060282;28;20041;-77
2021/03/06 04:14:12;;;;;;;2.10;1.92;;;;;;;-1.28;100.00;101740.63;5061437;28;20040;-76
2021/03/06 04:17:15;;;;;;;3.08;2.90;;;;;;;-1.36;100.00;101739.63;5061409;28;20067;-76
2021/03/06 04:20:22;;;;;;;4.85;2.67;;;;;;;-1.45;100.00;101746.41;5061237;28;20040;-77
2021/03/06 04:23:25;;;;;;;3.45;3.15;;;;;;;-1.55;100.00;101745.75;5060936;28;20047;-76
2021/03/06 04:26:29;;;;;;;1.70;1.67;;;;;;;-1.61;100.00;101749.88;5073723;28;20040;-76
2021/03/06 04:29:33;;;;;;;2.92;2.72;;;;;;;-1.69;100.00;101737.13;5061415;28;20050;-76
2021/03/06 04:32:39;;;;;;;6.68;3.28;;;;;;;-1.76;100.00;101736.94;5073378;28;20047;-76
2021/03/06 04:35:43;;;;;;;10.57;4.57;;;;;;;-1.84;100.00;101746.06;5061020;28;20033;-76
2021/03/06 04:38:46;;;;;;;6.32;2.28;;;;;;;-1.86;100.00;101744.81;5073343;28;20036;-76
2021/03/06 04:41:50;;;;;;;8.98;2.30;;;;;;;-1.90;100.00;101755.63;5061006;28;20052;-78
2021/03/06 04:44:53;;;;;;;1.98;1.88;;;;;;;-1.95;100.00;101760.56;5073495;28;20043;-78
2021/03/06 04:47:57;;;;;;;2.35;2.22;;;;;;;-1.98;100.00;101761.22;5060983;28;20417;-76
2021/03/06 04:51:02;;;;;;;2.92;2.72;;;;;;;-2.01;100.00;101762.69;5073205;28;20071;-78
2021/03/06 04:54:05;;;;;;;2.85;2.53;;;;;;;-2.00;100.00;101764.31;5073060;28;20045;-78
2021/03/06 04:57:11;;;;;;;2.55;2.22;;;;;;;-1.94;100.00;101765.66;5060617;28;20051;-79
2021/03/06 05:00:15;;;;;;;5.10;2.90;;;;;;;-1.94;100.00;101760.19;5072959;28;20063;-78
2021/03/06 05:03:19;;;;;;;2.60;1.83;;;;;;;-1.91;100.00;101767.72;5060319;28;20044;-78
2021/03/06 05:06:22;;;;;;;2.17;1.70;;;;;;;-1.89;100.00;101772.81;5060331;28;20044;-78
2021/03/06 05:09:25;;;;;;;2.72;2.22;;;;;;;-1.87;100.00;101771.34;5060297;28;20447;-78
2021/03/06 05:12:29;;;;;;;4.25;2.47;;;;;;;-1.80;100.00;101779.72;5072720;28;20044;-78
2021/03/06 05:15:32;;;;;;;2.58;2.40;;;;;;;-1.74;100.00;101783.81;5059437;28;20051;-78
2021/03/06 05:18:35;;;;;;;3.78;3.53;;;;;;;-1.68;100.00;101778.91;5060031;28;20044;-78
2021/03/06 05:21:39;;;;;;;3.60;2.70;;;;;;;-1.59;100.00;101785.81;5072419;28;20051;-78
2021/03/06 05:24:44;;;;;;;3.45;3.20;;;;;;;-1.53;100.00;101783.63;5060624;28;20048;-78
2021/03/06 05:27:52;;;;;;;4.80;3.28;;;;;;;-1.47;100.00;101786.94;5072795;28;20081;-77
2021/03/06 05:30:55;;;;;;;2.72;2.53;;;;;;;-1.42;100.00;101786.66;5060616;28;20420;-75
2021/03/06 05:33:59;;;;;;;5.78;2.80;;;;;;;-1.40;100.00;101779.72;5072542;28;20040;-78
2021/03/06 05:37:03;;;;;;;7.07;2.50;;;;;;;-1.36;100.00;101793.47;5072496;28;20056;-77
2021/03/06 05:40:07;;;;;;;3.30;2.90;;;;;;;-1.32;100.00;101788.91;5072635;28;20063;-78
2021/03/06 05:43:11;;;;;;;3.45;2.95;;;;;;;-1.30;100.00;101792.09;5060030;28;20041;-77
2021/03/06 05:46:14;;;;;;;8.30;2.90;;;;;;;-1.28;100.00;101789.81;5060016;28;20040;-77
2021/03/06 05:49:18;;;;;;;7.22;3.40;;;;;;;-1.23;100.00;101797.75;5059916;28;20036;-77
2021/03/06 05:52:22;;;;;;;6.95;3.40;;;;;;;-1.16;100.00;101782.34;5071985;28;20063;-77
2021/03/06 05:55:26;;;;;;;2.78;1.88;;;;;;;-1.13;100.00;101789.06;5059565;28;20044;-77
2021/03/06 05:58:30;;;;;;;2.95;2.47;;;;;;;-1.12;100.00;101801.56;5059641;28;20047;-77
2021/03/06 06:01:36;;;;;;;5.30;2.95;;;;;;;-1.09;100.00;101809.06;5072038;28;20517;-77
2021/03/06 06:04:41;;;;;;;3.65;3.38;;;;;;;-1.06;100.00;101802.91;5059935;28;20045;-77
2021/03/06 06:07:46;;;;;;;2.33;2.15;;;;;;;-1.04;100.00;101809.59;5059767;28;20051;-77
2021/03/06 06:10:50;;;;;;;5.30;2.78;;;;;;;-0.98;100.00;101812.91;5072016;28;20048;-77
2021/03/06 06:14:01;;;;;;;4.25;3.22;;;;;;;-0.99;100.00;101805.81;5072118;28;20055;-77
2021/03/06 06:17:09;;;;;;;2.95;1.60;;;;;;;-0.93;100.00;101807.16;5059392;28;20059;-77
2021/03/06 06:20:16;;;;;;;3.90;2.20;;;;;;;-0.87;100.00;101809.28;5059623;28;20039;-77
2021/03/06 06:23:19;;;;;;;4.28;2.95;;;;;;;-0.82;100.00;101810.97;5071644;28;20052;-77
2021/03/06 06:26:23;;;;;;;8.45;1.67;;;;;;;-0.80;100.00;101805.94;5061582;28;20040;-76
2021/03/06 06:29:46;;;;;;;8.30;1.95;;;;;;;-0.83;100.00;101807.47;5063340;28;20055;-77
2021/03/06 06:32:50;;;;;;;1.42;1.35;;;;;;;-0.83;100.00;101802.00;5063258;28;20036;-77
2021/03/06 06:35:53;;;;;;;1.90;1.80;;;;;;;-0.84;100.00;101794.91;5063842;28;20382;-78
2021/03/06 06:38:57;;;;;;;3.08;2.88;;;;;;;-0.85;100.00;101798.81;5063804;28;20045;-77
2021/03/06 06:42:01;;;;;;;2.97;2.17;;;;;;;-0.83;100.00;101793.78;5075589;28;20397;-76
2021/03/06 06:45:06;;;;;;;5.00;1.73;;;;;;;-0.80;100.00;101798.53;5076034;28;20052;-77
2021/03/06 06:48:10;;;;;;;1.90;1.70;;;;;;;-0.75;100.00;101786.53;5075739;28;20041;-78
2021/03/06 06:51:13;;;;;;;3.25;3.03;;;;;;;-0.75;100.00;101797.50;5076185;28;20044;-77
2021/03/06 06:54:17;;;;;;;3.55;2.10;;;;;;;-0.70;100.00;101793.69;5063747;28;20043;-76
2021/03/06 06:57:21;;;;;;;4.78;2.08;;;;;;;-0.68;100.00;101789.47;5063295;28;20043;-76
2021/03/06 07:00:28;;;;;;;1.90;1.80;;;;;;;-0.66;100.00;101795.38;5074450;28;20048;-77
2021/03/06 07:03:32;;;;;;;5.25;3.92;;;;;;;-0.63;100.00;101797.44;5073989;28;20048;-78
2021/03/06 07:06:36;;;;;;;13.23;3.38;;;;;;;-0.60;100.00;101799.44;5062297;28;20071;-78
2021/03/06 07:09:57;;;;;;;3.28;2.63;;;;;;;-0.56;100.00;101797.56;5062424;28;20084;-77
2021/03/06 07:13:04;;;;;;;5.43;2.15;;;;;;;-0.54;100.00;101798.03;5073982;28;20047;-77
2021/03/06 07:16:08;;;;;;;4.97;3.28;;;;;;;-0.53;100.00;101791.41;5074227;28;20107;-77
2021/03/06 07:19:11;;;;;;;2.50;1.83;;;;;;;-0.49;100.00;101800.50;5062070;28;20066;-79
2021/03/06 07:22:14;;;;;;;3.00;2.10;;;;;;;-0.45;100.00;101806.84;5074344;28;20048;-77
2021/03/06 07:25:19;;;;;;;4.13;2.15;;;;;;;-0.40;100.00;101808.53;5060546;28;20448;-78
2021/03/06 07:28:24;;;;;;;1.65;1.63;;;;;;;-0.38;100.00;101807.03;5062973;28;20048;-78
2021/03/06 07:31:29;;;;;;;2.47;2.20;;;;;;;-0.33;100.00;101803.25;5075071;28;20044;-77
2021/03/06 07:34:35;;;;;;;1.80;1.70;;;;;;;-0.27;100.00;101808.09;5062005;28;20048;-76
2021/03/06 07:37:40;;;;;;;3.10;1.70;;;;;;;-0.18;100.00;101805.16;5060546;28;20044;-78
2021/03/06 07:40:51;;;;;;;2.15;1.48;;;;;;;-0.12;100.00;101809.22;5074694;28;20051;-77
2021/03/06 07:43:57;;;;;;;7.13;2.55;;;;;;;-0.06;100.00;101814.06;5074513;28;20047;-76
2021/03/06 07:47:00;;;;;;;15.27;3.78;;;;;;;-0.01;100.00;101816.53;5073922;28;20041;-77
2021/03/06 07:50:07;;;;;;;5.78;2.65;;;;;;;0.05;100.00;101814.31;5062556;28;20489;-77
2021/03/06 07:53:13;;;;;;;3.53;3.08;;;;;;;0.09;100.00;101815.19;5061208;28;20516;-77
2021/03/06 07:56:16;;;;;;;10.35;3.72;;;;;;;0.16;100.00;101809.88;5060292;28;20067;-78
2021/03/06 07:59:48;;;;;;;4.68;3.72;;;;;;;0.22;100.00;101813.13;5060305;28;20055;-76
2021/03/06 08:02:51;;;;;;;6.47;2.70;;;;;;;0.29;100.00;101810.53;5060407;28;20496;-77
2021/03/06 08:05:57;;;;;;;2.35;2.25;;;;;;;0.39;100.00;101804.50;5060047;28;20055;-77
2021/03/06 08:09:03;;;;;;;1.65;1.25;;;;;;;0.51;100.00;101815.31;5073354;28;20047;-76
2021/03/06 08:12:07;;;;;;;3.15;1.60;;;;;;;0.60;100.00;101819.47;5061654;28;20055;-78
2021/03/06 08:15:27;;;;;;;1.67;1.58;;;;;;;0.67;100.00;101810.59;5061782;28;20397;-78
2021/03/06 08:18:32;;;;;;;4.78;2.30;;;;;;;0.78;100.00;101797.84;5062219;28;20055;-77
2021/03/06 08:21:44;;;;;;;6.55;3.15;;;;;;;0.91;100.00;101802.03;5062360;28;20409;-78
2021/03/06 08:24:47;;;;;;;;;;;;;;;1.01;100.00;101806.94;5074999;28;20047;-77
2021/03/06 08:28:28;;;;;;;20.17;4.07;;;;;;;1.12;100.00;101802.47;5060779;28;20295;-79
2021/03/06 08:31:39;;;;;;;3.05;2.85;;;;;;;1.18;100.00;101803.75;5042152;28;20037;-79
2021/03/06 08:34:45;;;;;;;1.83;1.73;;;;;;;1.23;100.00;101808.94;5041776;28;20048;-77
2021/03/06 08:37:50;;;;;;;6.20;2.88;;;;;;;1.34;100.00;101811.88;5054301;28;20051;-76
2021/03/06 08:40:54;;;;;;;6.38;4.60;;;;;;;1.42;100.00;101811.63;5054004;28;20052;-77
2021/03/06 08:43:58;;;;;;;10.98;3.50;;;;;;;1.53;100.00;101818.09;5064575;28;20072;-79
2021/03/06 08:47:03;;;;;;;16.38;4.68;;;;;;;1.63;100.00;101810.38;5041732;28;20052;-78
2021/03/06 08:50:09;;;;;;;9.43;4.68;;;;;;;1.70;100.00;101805.00;5040646;28;20470;-77
2021/03/06 08:53:16;;;;;;;8.30;3.20;;;;;;;1.87;100.00;101804.50;5064521;28;20036;-78
2021/03/06 08:56:20;;;;;;;11.43;5.65;;;;;;;1.96;100.00;101802.28;5041389;28;20044;-76
2021/03/06 08:59:37;;;;;;;5.80;3.33;;;;;;;2.06;100.00;101807.94;5064467;28;20406;-75
2021/03/06 09:02:40;;;;;;;10.40;3.33;;;;;;;2.16;100.00;101801.03;5053724;28;20052;-76
2021/03/06 09:05:46;;;;;;;2.60;2.38;;;;;;;2.26;100.00;101811.38;5053633;28;20045;-79
2021/03/06 09:08:54;;;;;;;5.30;3.08;;;;;;;2.31;100.00;101808.31;5041385;28;20047;-78
2021/03/06 09:11:58;;;;;;;9.95;2.67;;;;;;;2.37;100.00;101812.31;5041088;28;20067;-78
2021/03/06 09:15:03;;;;;;;6.13;2.47;;;;;;;2.46;100.00;101798.28;5053759;28;20091;-79
2021/03/06 09:18:11;;;;;;;5.78;2.60;;;;;;;2.56;100.00;101798.41;5053482;28;20381;-78
2021/03/06 09:21:20;;;;;;;4.82;2.17;;;;;;;2.72;100.00;101803.72;5041276;28;20056;-77
2021/03/06 09:24:24;;;;;;;5.40;2.03;;;;;;;2.87;100.00;101800.78;5040937;28;20048;-78
2021/03/06 09:27:42;;;;;;;10.77;2.40;;;;;;;3.06;100.00;101797.84;5064108;28;20405;-78
2021/03/06 09:30:45;;;;;;;1.73;1.60;;;;;;;3.19;100.00;101797.56;5063495;28;20709;-79
2021/03/06 09:33:48;;;;;;;7.40;3.13;;;;;;;3.32;100.00;101785.91;5040982;28;20052;-79
2021/03/06 09:36:51;;;;;;;10.48;3.38;;;;;;;3.48;100.00;101785.66;5063061;28;20051;-79
2021/03/06 09:39:55;;;;;;;3.75;2.25;;;;;;;3.61;100.00;101786.94;5053472;28;20044;-78
2021/03/06 09:42:59;;;;;;;13.07;3.03;;;;;;;3.72;100.00;101782.31;5063906;28;20516;-78
2021/03/06 09:46:12;;;;;;;4.68;2.05;;;;;;;3.81;100.00;101780.78;5053102;28;20064;-79
2021/03/06 09:49:15;;;;;;;4.60;1.48;;;;;;;3.92;100.00;101778.13;5052996;28;20418;-80
2021/03/06 09:52:30;;;;;;;5.75;1.88;;;;;;;4.05;100.00;101784.91;5067168;28;20047;-78
2021/03/06 09:55:34;;;;;;;0.80;0.80;;;;;;;4.18;100.00;101783.41;5061507;28;20063;-79
2021/03/06 09:58:41;;;;;;;0.98;0.88;;;;;;;4.26;100.00;101778.75;5060191;28;20055;-79
2021/03/06 10:01:45;;;;;;;1.00;1.00;;;;;;;4.39;100.00;101800.09;5072087;28;20047;-79
2021/03/06 10:04:50;;;;;;;2.55;1.50;;;;;;;4.41;100.00;101789.47;5059597;28;20583;-79
2021/03/06 10:07:55;;;;;;;4.45;0.90;;;;;;;4.44;100.00;101779.63;5072196;28;20047;-78
2021/03/06 10:11:00;;;;;;;1.48;1.20;;;;;;;4.43;100.00;101783.56;5071801;28;20052;-78
2021/03/06 10:14:06;;;;;;;1.13;1.10;;;;;;;4.46;100.00;101786.31;5059484;28;20039;-78
2021/03/06 10:17:10;;;;;;;0.73;0.73;;;;;;;4.52;100.00;101790.31;5058985;28;20079;-78
2021/03/06 10:20:13;;;;;;;2.95;0.75;;;;;;;4.59;100.00;101786.78;5059352;28;20047;-79
2021/03/06 10:23:33;;;;;;;0.35;0.35;;;;;;;4.66;100.00;101780.50;5059223;28;20056;-78
2021/03/06 10:26:38;;;;;;;0.75;0.75;;;;;;;4.71;100.00;101785.63;5071708;28;20050;-79
2021/03/06 10:29:42;;;;;;;3.70;1.17;;;;;;;4.69;100.00;101785.22;5059300;28;20051;-78
2021/03/06 10:32:48;;;;;;;1.33;0.80;;;;;;;4.77;100.00;101781.31;5071795;28;20389;-79
2021/03/06 10:35:52;;;;;;;1.20;1.08;;;;;;;4.78;100.00;101782.91;5059025;28;20059;-79
2021/03/06 10:39:11;;;;;;;0.45;0.45;;;;;;;4.74;100.00;101782.91;5059127;28;20063;-79
2021/03/06 10:42:15;;;;;;;0.45;0.45;;;;;;;4.78;100.00;101782.91;5059418;28;20516;-79
2021/03/06 10:45:24;;;;;;;0.70;0.70;;;;;;;4.89;100.00;101786.50;5059122;28;20067;-79
2021/03/06 10:48:30;;;;;;;1.80;0.82;;;;;;;4.93;100.00;101785.34;5059370;28;20048;-78
2021/03/06 10:51:53;;;;;;;4.70;0.73;;;;;;;4.87;100.00;101780.56;5070933;28;20040;-79
2021/03/06 10:54:58;;;;;;;0.73;0.52;;;;;;;4.89;100.00;101778.22;5059039;28;20389;-79
2021/03/06 10:58:02;;;;;;;1.20;0.93;;;;;;;4.87;100.00;101775.84;5059366;28;20051;-78
2021/03/06 11:01:05;;;;;;;1.20;0.70;;;;;;;4.93;100.00;101787.28;5059404;28;20048;-79
2021/03/06 11:04:25;;;;;;;0.60;0.60;;;;;;;4.99;100.00;101780.22;5071513;28;20051;-79
2021/03/06 11:07:29;;;;;;;3.13;1.30;;;;;;;5.03;100.00;101783.75;5059099;28;20048;-78
2021/03/06 11:10:38;;;;;;;0.30;0.30;;;;;;;5.09;100.00;101783.00;5071358;28;20071;-78
2021/03/06 11:13:44;;;;;;;6.50;1.02;;;;;;;5.10;100.00;101778.25;5061339;28;20071;-79
2021/03/06 11:16:47;;;;;;;0.75;0.40;;;;;;;5.07;100.00;101773.50;5062436;28;20059;-79
2021/03/06 11:19:51;;;;;;;1.55;0.88;;;;;;;5.16;100.00;101776.69;5062690;28;20055;-78
2021/03/06 11:22:55;;;;;;;3.45;1.10;;;;;;;5.13;100.00;101777.50;5061858;28;20059;-79
2021/03/06 11:25:58;;;;;;;1.10;0.43;;;;;;;5.14;100.00;101773.53;5062471;28;20059;-78
2021/03/06 11:29:05;;;;;;;2.40;0.65;;;;;;;5.25;100.00;101768.81;5062219;28;20507;-79
2021/03/06 11:32:10;;;;;;;0.25;0.25;;;;;;;5.40;100.00;101764.88;5062490;28;20052;-77
2021/03/06 11:35:15;;;;;;;0.30;0.30;;;;;;;5.41;100.00;101758.19;5062220;28;20079;-79
2021/03/06 11:38:22;;;;;;;0.50;0.50;;;;;;;5.50;100.00;101755.03;5062535;28;20047;-79
2021/03/06 11:41:25;;;;;;;0.30;0.28;;;;;;;5.62;100.00;101760.94;5062554;28;20063;-79
2021/03/06 11:44:28;;;;;;;0.35;0.35;;;;;;;5.68;100.00;101748.31;5061997;28;20043;-79
2021/03/06 11:47:32;;;;;;;0.20;0.20;;;;;;;5.70;100.00;101745.94;5062549;28;20067;-78
2021/03/06 11:50:39;;;;;;;0.80;0.45;;;;;;;5.70;100.00;101740.41;5074458;28;20059;-79
2021/03/06 11:53:43;;;;;;;0.47;0.47;;;;;;;5.77;100.00;101731.31;5062329;28;20381;-79
2021/03/06 11:56:46;;;;;;;1.38;0.85;;;;;;;5.75;100.00;101722.63;5062587;28;20048;-80
2021/03/06 11:59:50;;;;;;;0.63;0.35;;;;;;;5.88;100.00;101724.63;5062796;28;20491;-80
2021/03/06 12:02:53;;;;;;;2.10;0.52;;;;;;;5.96;100.00;101726.19;5062533;28;20522;-80
2021/03/06 12:05:57;;;;;;;0.40;0.40;;;;;;;5.99;100.00;101714.34;5062790;28;20500;-79
2021/03/06 12:09:00;;;;;;;0.75;0.75;;;;;;;6.08;100.00;101722.22;5062606;28;20047;-77
2021/03/06 12:12:05;;;;;;;0.93;0.82;;;;;;;6.08;100.00;101717.47;5075069;28;20044;-80
2021/03/06 12:15:10;;;;;;;0.50;0.50;;;;;;;6.10;100.00;101717.88;5062164;28;20039;-79
2021/03/06 12:18:14;;;;;;;1.30;0.93;;;;;;;6.04;100.00;101719.44;5062052;28;20059;-80
2021/03/06 12:21:17;;;;;;;0.90;0.90;;;;;;;5.88;100.00;101710.81;5062314;28;20479;-80
2021/03/06 12:24:21;;;;;;;0.40;0.40;;;;;;;5.91;100.00;101707.22;5061849;28;20501;-84
2021/03/06 12:27:24;;;;;;;1.08;0.50;;;;;;;5.92;100.00;101706.03;5062277;28;20043;-83
2021/03/06 12:30:28;;;;;;;2.83;0.65;;;;;;;6.04;100.00;101705.59;5062214;28;20052;-82
2021/03/06 12:33:31;;;;;;;1.30;0.75;;;;;;;6.13;100.00;101698.88;5074447;28;20060;-82
2021/03/06 12:36:36;;;;;;;0.85;0.57;;;;;;;6.10;100.00;101698.50;5063969;28;20043;-77
2021/03/06 12:39:40;;;;;;;3.05;1.05;;;;;;;6.12;100.00;101684.25;5075846;28;20048;-81
2021/03/06 12:42:43;;;;;;;0.75;0.30;;;;;;;6.15;100.00;101699.28;5062446;28;20104;-84
2021/03/06 12:45:47;;;;;;;0.38;0.28;;;;;;;6.13;100.00;101685.81;5074684;28;20500;-85
2021/03/06 12:48:51;;;;;;;1.05;1.05;;;;;;;6.17;100.00;101674.75;5062290;28;20051;-84
2021/03/06 12:51:55;;;;;;;0.80;0.40;;;;;;;6.28;100.00;101681.03;5061831;28;20055;-82
2021/03/06 12:54:58;;;;;;;9.02;0.60;;;;;;;6.35;100.00;101678.22;5061945;28;20043;-81
2021/03/06 12:58:02;;;;;;;2.90;1.05;;;;;;;6.27;100.00;101668.38;5073949;28;20056;-81
2021/03/06 13:01:05;;;;;;;0.80;0.40;;;;;;;6.31;100.00;101672.72;5061515;28;20047;-82
2021/03/06 13:04:09;;;;;;;0.30;0.20;;;;;;;6.38;100.00;101663.59;5061667;28;20047;-83
2021/03/06 13:07:12;;;;;;;1.35;0.40;;;;;;;6.43;100.00;101661.19;5061967;28;20059;-82
2021/03/06 13:10:16;;;;;;;1.02;0.40;;;;;;;6.32;100.00;101654.94;5062315;28;20059;-82
2021/03/06 13:13:20;;;;;;;0.50;0.50;;;;;;;6.33;100.00;101647.41;5061982;28;20094;-83
2021/03/06 13:16:23;;;;;;;4.30;0.65;;;;;;;6.31;100.00;101647.03;5061401;28;20047;-81
2021/03/06 13:19:27;;;;;;;0.30;0.30;;;;;;;6.16;100.00;101645.50;5061259;28;20060;-82
2021/03/06 13:22:30;;;;;;;0.52;0.35;;;;;;;6.13;100.00;101635.28;5061425;28;20059;-82
2021/03/06 13:25:34;;;;;;;0.10;0.10;;;;;;;6.13;100.00;101631.31;5073574;28;20405;-83
2021/03/06 13:28:38;;;;;;;0.63;0.40;;;;;;;6.18;100.00;101630.09;5061014;28;20044;-78
2021/03/06 13:31:41;;;;;;;3.90;0.73;;;;;;;6.04;100.00;101628.16;5061067;28;20508;-83
2021/03/06 13:34:45;;;;;;;2.90;0.70;;;;;;;6.05;100.00;101620.66;5061200;28;20040;-85
2021/03/06 13:37:49;;;;;;;2.72;0.45;;;;;;;6.03;100.00;101615.56;5061258;28;20512;-86
2021/03/06 13:40:52;;;;;;;0.63;0.63;;;;;;;6.00;100.00;101610.81;5060978;28;20203;-83
2021/03/06 13:43:56;;;;;;;1.17;0.20;;;;;;;6.06;100.00;101613.97;5061127;28;20508;-83
2021/03/06 13:46:59;;;;;;;0.80;0.60;;;;;;;5.98;100.00;101606.88;5061152;28;20071;-83
2021/03/06 13:50:06;;;;;;;0.55;0.55;;;;;;;5.90;100.00;101599.78;5060999;28;20051;-83
2021/03/06 13:53:10;;;;;;;10.52;0.93;;;;;;;5.80;100.00;101598.63;5053022;28;20051;-82
2021/03/06 13:56:13;;;;;;;0.30;0.30;;;;;;;5.85;100.00;101592.72;5041193;28;20086;-86
2021/03/06 13:59:18;;;;;;;0.75;0.43;;;;;;;5.90;100.00;101586.78;5041161;28;20055;-85
2021/03/06 14:02:21;;;;;;;0.52;0.30;;;;;;;5.74;100.00;101580.09;5064528;28;20405;-82
2021/03/06 14:05:25;;;;;;;1.05;0.65;;;;;;;5.47;100.00;101579.00;5064471;28;20501;-87
2021/03/06 14:08:29;;;;;;;1.60;0.77;;;;;;;5.38;100.00;101573.88;5056808;28;20048;-83
2021/03/06 14:11:32;;;;;;;5.82;1.20;;;;;;;5.36;100.00;101577.03;5041716;28;20048;-82
2021/03/06 14:14:36;;;;;;;0.90;0.43;;;;;;;5.27;100.00;101573.91;5064425;28;20082;-83
2021/03/06 14:17:39;;;;;;;5.35;0.85;;;;;;;5.10;100.00;101568.41;5041142;28;20052;-86
2021/03/06 14:20:43;;;;;;;4.13;0.90;;;;;;;4.99;100.00;101571.19;5053117;28;20052;-83